Time;durP1;ratioP1;P1;durP2;ratioP2;P2;SDS_P1;SDS_P2;PMS_P1;PMS_P2;Temp;Humidity;BMP_temperature;BMP_pressure;BME280_temperature;BME280_humidity;BME280_pressure;Samples;Min_cycle;Max_cycle;Signal;HPM_P1;HPM_P2
2023/03/12 00:02:09;;;;;;;7.75;2.55;;;2.20;99.90;;;;;;5020553;28;20026;-78
2023/03/12 00:04:35;;;;;;;8.10;2.58;;;2.30;99.90;;;;;;5037972;28;20083;-77
2023/03/12 00:07:02;;;;;;;8.25;2.58;;;2.30;99.90;;;;;;5037653;28;20124;-78
2023/03/12 00:09:30;;;;;;;10.27;2.60;;;2.30;99.90;;;;;;5038342;28;20024;-77
2023/03/12 00:11:56;;;;;;;6.35;2.20;;;2.30;99.90;;;;;;5037726;28;20053;-77
2023/03/12 00:14:21;;;;;;;8.05;3.03;;;2.30;99.90;;;;;;5020530;28;20499;-78
2023/03/12 00:16:47;;;;;;;5.53;2.38;;;2.30;99.90;;;;;;5020513;28;20481;-78
2023/03/12 00:19:13;;;;;;;7.88;1.65;;;2.40;99.90;;;;;;5037973;28;20025;-78
2023/03/12 00:21:39;;;;;;;6.75;2.38;;;2.40;99.90;;;;;;5038623;28;20033;-78
2023/03/12 00:24:06;;;;;;;5.20;1.92;;;2.50;99.90;;;;;;5037922;28;20064;-78
2023/03/12 00:26:34;;;;;;;7.00;1.85;;;2.50;99.90;;;;;;5037669;28;20032;-78
2023/03/12 00:29:00;;;;;;;5.57;1.90;;;2.30;99.90;;;;;;5019987;28;20057;-78
2023/03/12 00:31:30;;;;;;;11.77;2.25;;;2.50;99.90;;;;;;5037806;28;20544;-77
2023/03/12 00:33:56;;;;;;;5.47;2.38;;;2.50;99.90;;;;;;5037848;28;20014;-78
2023/03/12 00:36:25;;;;;;;11.70;2.38;;;2.50;99.90;;;;;;5037472;28;20037;-78
2023/03/12 00:38:52;;;;;;;10.30;2.03;;;2.50;99.90;;;;;;5019995;28;20022;-78
2023/03/12 00:41:21;;;;;;;3.50;1.48;;;2.50;99.90;;;;;;5038274;28;20456;-77
2023/03/12 00:43:48;;;;;;;10.32;2.40;;;2.50;99.90;;;;;;5037929;28;20100;-78
2023/03/12 00:46:14;;;;;;;8.10;2.05;;;2.50;99.90;;;;;;5020556;28;20028;-77
2023/03/12 00:48:39;;;;;;;8.98;3.08;;;2.50;99.90;;;;;;5020291;28;20397;-77
2023/03/12 00:51:08;;;;;;;7.90;2.60;;;2.50;99.90;;;;;;5019852;28;20025;-77
2023/03/12 00:53:34;;;;;;;4.22;1.73;;;2.50;99.90;;;;;;5037831;28;20061;-78
2023/03/12 00:56:01;;;;;;;5.50;2.38;;;2.50;99.90;;;;;;5019598;28;20025;-78
2023/03/12 00:58:26;;;;;;;4.30;2.15;;;6.10;99.90;;;;;;5038399;28;20021;-77
2023/03/12 01:00:52;;;;;;;4.28;1.95;;;2.50;99.90;;;;;;5037059;28;20499;-77
2023/03/12 01:03:18;;;;;;;7.35;2.53;;;2.50;99.90;;;;;;5019991;28;20021;-77
2023/03/12 01:05:43;;;;;;;3.88;1.73;;;2.50;99.90;;;;;;5019610;28;20084;-77
2023/03/12 01:08:10;;;;;;;8.05;2.58;;;2.50;99.90;;;;;;5037123;28;20400;-77
2023/03/12 01:10:40;;;;;;;6.80;2.38;;;2.60;99.90;;;;;;5019447;28;20017;-77
2023/03/12 01:13:06;;;;;;;10.32;1.95;;;2.60;99.90;;;;;;5037306;28;20021;-77
2023/03/12 01:15:34;;;;;;;8.68;2.17;;;2.60;99.90;;;;;;5019957;28;20029;-77
2023/03/12 01:18:03;;;;;;;8.65;1.73;;;2.60;99.90;;;;;;5037316;28;20071;-77
2023/03/12 01:20:29;;;;;;;8.07;1.92;;;2.60;99.90;;;;;;5037639;28;20056;-77
2023/03/12 01:22:54;;;;;;;6.07;2.00;;;2.70;99.90;;;;;;5019103;28;20400;-77
2023/03/12 01:25:22;;;;;;;7.65;1.73;;;2.70;99.90;;;;;;5019111;28;20079;-78
2023/03/12 01:27:48;;;;;;;7.03;1.98;;;2.60;99.90;;;;;;5020126;28;20516;-77
2023/03/12 01:30:14;;;;;;;6.28;1.60;;;2.70;99.90;;;;;;5036811;28;20037;-77
2023/03/12 01:32:39;;;;;;;4.13;1.42;;;2.60;99.90;;;;;;5018714;28;20022;-77
2023/03/12 01:35:06;;;;;;;5.60;1.33;;;2.60;99.90;;;;;;5017893;28;20025;-77
2023/03/12 01:37:32;;;;;;;6.90;1.65;;;2.60;99.90;;;;;;5018217;28;20018;-77
2023/03/12 01:39:58;;;;;;;5.65;2.03;;;2.60;99.90;;;;;;5035707;28;20025;-77
2023/03/12 01:42:23;;;;;;;4.68;1.58;;;2.60;99.90;;;;;;5035587;28;20165;-77
2023/03/12 01:44:58;;;;;;;6.10;1.83;;;2.60;99.90;;;;;;5035532;28;20427;-77
2023/03/12 01:47:24;;;;;;;6.10;1.75;;;2.70;99.90;;;;;;5017677;28;20116;-77
2023/03/12 01:49:51;;;;;;;10.35;1.73;;;2.70;99.90;;;;;;5017811;28;20421;-77
2023/03/12 01:52:22;;;;;;;3.00;1.13;;;2.70;99.90;;;;;;5035488;28;20013;-77
2023/03/12 01:55:03;;;;;;;6.32;2.15;;;2.70;99.90;;;;;;5035386;28;20071;-77
2023/03/12 01:57:35;;;;;;;6.60;1.30;;;2.70;99.90;;;;;;5034519;28;20021;-77
2023/03/12 02:00:10;;;;;;;6.15;1.58;;;2.70;99.90;;;;;;5017052;28;20025;-77
2023/03/12 02:02:37;;;;;;;5.28;1.15;;;2.70;99.90;;;;;;5016110;28;20029;-77
2023/03/12 02:05:16;;;;;;;8.70;1.35;;;2.70;99.90;;;;;;5016749;28;20028;-77
2023/03/12 02:07:42;;;;;;;5.35;1.25;;;2.70;99.90;;;;;;5016831;28;20033;-77
2023/03/12 02:10:08;;;;;;;7.63;1.70;;;2.70;99.90;;;;;;5016944;28;20033;-78
2023/03/12 02:12:34;;;;;;;7.80;1.65;;;2.70;99.90;;;;;;5034547;28;20025;-77
2023/03/12 02:14:59;;;;;;;4.65;1.15;;;2.80;99.90;;;;;;5016569;28;20016;-77
2023/03/12 02:17:25;;;;;;;5.03;0.80;;;2.80;99.90;;;;;;5016687;28;20108;-77
2023/03/12 02:19:56;;;;;;;4.68;1.42;;;2.80;99.90;;;;;;5034264;28;20032;-77
2023/03/12 02:22:23;;;;;;;6.30;1.30;;;2.80;99.90;;;;;;5016622;28;20028;-77
2023/03/12 02:24:52;;;;;;;4.32;1.42;;;2.80;99.90;;;;;;5016549;28;20032;-77
2023/03/12 02:27:19;;;;;;;5.43;1.50;;;2.90;99.90;;;;;;5034089;28;20047;-77
2023/03/12 02:29:45;;;;;;;4.63;1.13;;;2.80;99.90;;;;;;5034857;28;20060;-78
2023/03/12 02:32:21;;;;;;;4.82;0.73;;;2.80;99.90;;;;;;5034124;28;20444;-78
2023/03/12 02:34:49;;;;;;;10.43;1.52;;;2.80;99.90;;;;;;5034162;28;20105;-78
2023/03/12 02:37:16;;;;;;;3.47;0.80;;;2.80;99.90;;;;;;5033816;28;20076;-78
2023/03/12 02:39:43;;;;;;;4.15;0.88;;;2.90;99.90;;;;;;5016207;28;20119;-78
2023/03/12 02:42:08;;;;;;;4.65;0.88;;;2.90;99.90;;;;;;5033877;28;20041;-78
2023/03/12 02:44:36;;;;;;;4.40;1.02;;;2.90;99.90;;;;;;5033871;28;20400;-77
2023/03/12 02:47:03;;;;;;;4.70;0.82;;;2.90;99.90;;;;;;5033682;28;20022;-77
2023/03/12 02:49:31;;;;;;;3.08;0.85;;;2.90;99.90;;;;;;5033774;28;20028;-77
2023/03/12 02:51:57;;;;;;;7.72;1.05;;;2.90;99.90;;;;;;5033779;28;20041;-77
2023/03/12 02:54:24;;;;;;;9.82;1.30;;;2.90;99.90;;;;;;5016281;28;20017;-77
2023/03/12 02:56:50;;;;;;;6.10;1.00;;;2.90;99.90;;;;;;5015789;28;20481;-78
2023/03/12 02:59:19;;;;;;;4.57;1.17;;;2.90;99.90;;;;;;5015908;28;20396;-77
2023/03/12 03:01:45;;;;;;;5.00;0.98;;;2.90;99.90;;;;;;5034112;28;20108;-78
2023/03/12 03:04:11;;;;;;;5.63;1.23;;;2.90;99.90;;;;;;5033505;28;20120;-78
2023/03/12 03:06:39;;;;;;;7.32;0.90;;;3.00;99.90;;;;;;5015593;28;20021;-78
2023/03/12 03:09:06;;;;;;;1.98;0.40;;;3.00;99.90;;;;;;5015777;28;20044;-78
2023/03/12 03:11:32;;;;;;;6.00;0.82;;;3.00;99.90;;;;;;5015696;28;20018;-77
2023/03/12 03:13:57;;;;;;;5.45;0.85;;;2.90;99.90;;;;;;5033408;28;20392;-77
2023/03/12 03:16:23;;;;;;;5.03;0.80;;;3.00;99.90;;;;;;5033580;28;20022;-78
2023/03/12 03:18:49;;;;;;;4.75;0.77;;;3.00;99.90;;;;;;5015548;28;20022;-77
2023/03/12 03:21:16;;;;;;;6.40;0.68;;;3.00;99.90;;;;;;5033293;28;20025;-78
2023/03/12 03:23:46;;;;;;;3.13;0.30;;;3.00;99.90;;;;;;5015527;28;20026;-77
2023/03/12 03:26:12;;;;;;;4.30;0.75;;;3.00;99.90;;;;;;5015455;28;20022;-77
2023/03/12 03:28:38;;;;;;;6.50;1.13;;;3.00;99.90;;;;;;5015765;28;20021;-77
2023/03/12 03:31:04;;;;;;;4.82;0.38;;;2.90;99.90;;;;;;5015771;28;20380;-77
2023/03/12 03:33:32;;;;;;;3.80;0.65;;;2.90;99.90;;;;;;5015986;28;20022;-77
2023/03/12 03:35:58;;;;;;;2.53;1.05;;;2.90;99.90;;;;;;5033662;28;20025;-77
2023/03/12 03:38:25;;;;;;;4.40;0.60;;;3.00;99.90;;;;;;5016070;28;20022;-77
2023/03/12 03:40:51;;;;;;;3.00;0.68;;;3.10;99.90;;;;;;5016264;28;20088;-77
2023/03/12 03:43:17;;;;;;;3.42;0.63;;;3.10;99.90;;;;;;5016174;28;20025;-77
2023/03/12 03:45:43;;;;;;;3.97;0.80;;;3.10;99.90;;;;;;5015263;28;20026;-77
2023/03/12 03:48:10;;;;;;;4.63;0.90;;;3.10;99.90;;;;;;5033707;28;20048;-77
2023/03/12 03:50:37;;;;;;;2.75;0.68;;;3.10;99.90;;;;;;5033495;28;20494;-77
2023/03/12 03:53:03;;;;;;;7.10;0.60;;;3.10;99.90;;;;;;5015864;28;20067;-77
2023/03/12 03:55:28;;;;;;;10.05;1.80;;;3.10;99.90;;;;;;5033762;28;20107;-77
2023/03/12 03:57:54;;;;;;;2.50;1.02;;;3.10;99.90;;;;;;5033974;28;20041;-77
2023/03/12 04:00:20;;;;;;;3.58;0.73;;;3.00;99.90;;;;;;5034314;28;20022;-77
2023/03/12 04:02:46;;;;;;;3.33;0.90;;;3.00;99.90;;;;;;5033640;28;20048;-77
2023/03/12 04:05:11;;;;;;;2.15;0.50;;;3.00;99.90;;;;;;5015832;28;20030;-77
2023/03/12 04:07:37;;;;;;;2.47;0.75;;;3.00;99.90;;;;;;5015695;28;20473;-77
2023/03/12 04:10:03;;;;;;;3.15;0.60;;;3.00;99.90;;;;;;5015589;28;20539;-78
2023/03/12 04:12:29;;;;;;;4.18;1.77;;;3.00;99.90;;;;;;5033142;28;20025;-78
2023/03/12 04:14:55;;;;;;;3.95;1.30;;;3.00;99.90;;;;;;5033052;28;20021;-77
2023/03/12 04:17:21;;;;;;;5.18;0.85;;;2.90;99.90;;;;;;5033295;28;20068;-78
2023/03/12 04:19:46;;;;;;;2.83;0.60;;;2.90;99.90;;;;;;5015676;28;20481;-78
2023/03/12 04:22:12;;;;;;;3.15;0.52;;;2.90;99.90;;;;;;5033449;28;20033;-77
2023/03/12 04:24:38;;;;;;;10.13;1.42;;;3.60;99.90;;;;;;5016006;28;20048;-77
2023/03/12 04:27:04;;;;;;;4.32;0.82;;;3.00;99.90;;;;;;5019003;28;20021;-77
2023/03/12 04:29:29;;;;;;;2.58;0.65;;;3.00;99.90;;;;;;5036662;28;20028;-77
2023/03/12 04:31:55;;;;;;;6.90;1.05;;;3.00;99.90;;;;;;5019213;28;20018;-77
2023/03/12 04:34:21;;;;;;;1.80;0.60;;;3.00;99.90;;;;;;5036650;28;20033;-77
2023/03/12 04:36:46;;;;;;;2.92;0.80;;;3.10;99.90;;;;;;5018803;28;20037;-77
2023/03/12 04:39:15;;;;;;;8.13;1.25;;;3.10;99.90;;;;;;5019119;28;20087;-78
2023/03/12 04:41:41;;;;;;;2.58;0.50;;;3.10;99.90;;;;;;5036562;28;20021;-78
2023/03/12 04:44:06;;;;;;;6.97;0.73;;;3.10;99.90;;;;;;5018635;28;20166;-78
2023/03/12 04:46:32;;;;;;;4.25;0.75;;;3.10;99.90;;;;;;5036138;28;20037;-77
2023/03/12 04:49:01;;;;;;;4.30;0.90;;;3.10;99.90;;;;;;5018669;28;20479;-77
2023/03/12 04:51:27;;;;;;;;;;;3.10;99.90;;;;;;5037338;28;20024;-77
2023/03/12 04:53:52;;;;;;;9.43;1.00;;;3.10;99.90;;;;;;5018516;28;20272;-77
2023/03/12 04:56:18;;;;;;;4.45;0.85;;;3.10;99.90;;;;;;5018443;28;20471;-77
2023/03/12 04:58:43;;;;;;;4.80;0.77;;;3.10;99.90;;;;;;5018220;28;20037;-77
2023/03/12 05:01:22;;;;;;;6.50;1.10;;;3.10;99.90;;;;;;5017973;28;20022;-77
2023/03/12 05:03:47;;;;;;;3.70;1.15;;;3.10;99.90;;;;;;5018078;28;20056;-77
2023/03/12 05:06:13;;;;;;;6.65;2.08;;;3.00;99.90;;;;;;5035534;28;20052;-77
2023/03/12 05:08:38;;;;;;;6.43;1.10;;;3.00;99.90;;;;;;5035374;28;20484;-77
2023/03/12 05:11:04;;;;;;;4.95;0.88;;;3.00;99.90;;;;;;5035551;28;20021;-77
2023/03/12 05:13:29;;;;;;;3.95;1.20;;;3.00;99.90;;;;;;5035373;28;20116;-76
2023/03/12 05:15:55;;;;;;;4.57;1.00;;;3.00;99.90;;;;;;5017560;28;20020;-77
2023/03/12 05:18:21;;;;;;;3.47;1.00;;;3.00;99.90;;;;;;5017555;28;20026;-77
2023/03/12 05:20:56;;;;;;;5.30;1.30;;;3.90;99.90;;;;;;5017598;28;20027;-77
2023/03/12 05:23:21;;;;;;;7.05;1.63;;;3.00;99.90;;;;;;5017657;28;20043;-77
2023/03/12 05:25:47;;;;;;;5.28;0.80;;;2.90;99.90;;;;;;5017409;28;20424;-78
2023/03/12 05:28:12;;;;;;;5.00;0.70;;;3.00;99.90;;;;;;5035311;28;20037;-78
2023/03/12 05:30:38;;;;;;;3.35;1.02;;;3.10;99.90;;;;;;5017518;28;20021;-77
2023/03/12 05:33:04;;;;;;;5.78;1.00;;;3.10;99.90;;;;;;5035122;28;20056;-77
2023/03/12 05:35:31;;;;;;;6.82;1.00;;;3.10;99.90;;;;;;5017075;28;20520;-77
2023/03/12 05:37:57;;;;;;;4.13;1.05;;;3.10;99.90;;;;;;5034104;28;20055;-77
2023/03/12 05:40:23;;;;;;;5.38;1.38;;;3.10;99.90;;;;;;5017335;28;20018;-77
2023/03/12 05:42:48;;;;;;;3.67;1.08;;;3.00;99.90;;;;;;5017315;28;20476;-77
2023/03/12 05:45:14;;;;;;;5.50;1.13;;;3.00;99.90;;;;;;5017105;28;20399;-77
2023/03/12 05:47:39;;;;;;;4.75;1.17;;;3.10;99.90;;;;;;5016996;28;20064;-77
2023/03/12 05:50:06;;;;;;;4.97;0.88;;;4.10;99.90;;;;;;5017085;28;20460;-77
2023/03/12 05:52:31;;;;;;;5.63;1.02;;;3.10;99.90;;;;;;5017029;28;20032;-77
2023/03/12 05:54:57;;;;;;;3.38;1.10;;;3.10;99.90;;;;;;5017045;28;20018;-77
2023/03/12 05:57:22;;;;;;;5.00;1.13;;;3.10;99.90;;;;;;5016847;28;20060;-77
2023/03/12 05:59:48;;;;;;;4.20;1.42;;;3.10;99.90;;;;;;5034509;28;20030;-77
2023/03/12 06:02:13;;;;;;;3.28;1.23;;;3.10;99.90;;;;;;5034586;28;20027;-77
2023/03/12 06:04:39;;;;;;;5.35;0.80;;;3.10;99.90;;;;;;5016861;28;20021;-77
2023/03/12 06:07:04;;;;;;;7.75;2.38;;;3.10;99.90;;;;;;5034336;28;20037;-77
2023/03/12 06:09:30;;;;;;;4.82;1.27;;;3.10;99.90;;;;;;5016864;28;20021;-77
2023/03/12 06:11:55;;;;;;;8.68;1.65;;;3.10;99.90;;;;;;5034376;28;20024;-77
2023/03/12 06:14:21;;;;;;;8.90;1.75;;;3.10;99.90;;;;;;5016752;28;20017;-77
2023/03/12 06:16:47;;;;;;;3.83;1.10;;;3.10;99.90;;;;;;5016592;28;20025;-78
2023/03/12 06:19:15;;;;;;;3.55;0.90;;;3.00;99.90;;;;;;5034784;28;20432;-78
2023/03/12 06:21:42;;;;;;;5.38;1.33;;;3.00;99.90;;;;;;5016488;28;20038;-78
2023/03/12 06:24:08;;;;;;;2.50;1.42;;;3.00;99.90;;;;;;5016529;28;20033;-77
2023/03/12 06:26:34;;;;;;;6.38;1.35;;;3.00;99.90;;;;;;5034051;28;20048;-77
2023/03/12 06:29:00;;;;;;;3.72;1.42;;;2.90;99.90;;;;;;5034087;28;20017;-77
2023/03/12 06:31:25;;;;;;;4.90;1.27;;;2.90;99.90;;;;;;5034252;28;20124;-77
2023/03/12 06:33:52;;;;;;;5.30;1.05;;;2.90;99.90;;;;;;5034103;28;20464;-77
2023/03/12 06:36:18;;;;;;;3.97;1.08;;;2.90;99.90;;;;;;5016127;28;20029;-77
2023/03/12 06:38:43;;;;;;;3.88;1.08;;;3.00;99.90;;;;;;5033912;28;20489;-77
2023/03/12 06:41:12;;;;;;;5.30;1.92;;;3.00;99.90;;;;;;5016270;28;20018;-77
2023/03/12 06:43:38;;;;;;;6.10;1.70;;;2.90;99.90;;;;;;5016315;28;20021;-77
2023/03/12 06:46:06;;;;;;;4.00;1.20;;;3.00;99.90;;;;;;5034320;28;20021;-77
2023/03/12 06:48:35;;;;;;;4.63;1.33;;;2.90;99.90;;;;;;5033480;28;20392;-77
2023/03/12 06:51:02;;;;;;;10.77;2.17;;;2.90;99.90;;;;;;5033731;28;20432;-77
2023/03/12 06:53:28;;;;;;;5.15;1.48;;;2.90;99.90;;;;;;5033737;28;20018;-77
2023/03/12 06:55:53;;;;;;;2.90;1.40;;;3.00;99.90;;;;;;5015971;28;20025;-77
2023/03/12 06:58:22;;;;;;;6.07;1.70;;;3.00;99.90;;;;;;5015897;28;20023;-77
2023/03/12 07:00:47;;;;;;;4.07;1.73;;;3.00;99.90;;;;;;5033668;28;20034;-77
2023/03/12 07:03:13;;;;;;;10.23;1.90;;;3.00;99.90;;;;;;5033559;28;20029;-77
2023/03/12 07:05:42;;;;;;;9.68;2.65;;;3.80;99.90;;;;;;5015849;28;20045;-77
2023/03/12 07:08:07;;;;;;;5.90;2.30;;;3.00;99.90;;;;;;5033504;28;20071;-77
2023/03/12 07:10:33;;;;;;;9.95;2.63;;;3.00;99.90;;;;;;5015670;28;20021;-77
2023/03/12 07:12:58;;;;;;;7.95;2.85;;;3.10;99.90;;;;;;5033524;28;20084;-77
2023/03/12 07:15:24;;;;;;;6.25;1.98;;;3.10;99.90;;;;;;5015838;28;20022;-77
2023/03/12 07:17:50;;;;;;;10.95;2.58;;;3.20;99.90;;;;;;5015920;28;20436;-77
2023/03/12 07:20:16;;;;;;;7.18;2.63;;;4.60;99.90;;;;;;5033374;28;20036;-76
2023/03/12 07:22:41;;;;;;;10.95;3.60;;;3.20;99.90;;;;;;5016296;28;20160;-77
2023/03/12 07:25:08;;;;;;;6.35;2.75;;;3.30;99.90;;;;;;5015697;28;20159;-77
2023/03/12 07:27:34;;;;;;;9.32;3.83;;;3.20;99.90;;;;;;5015719;28;20505;-76
2023/03/12 07:29:59;;;;;;;8.18;3.33;;;3.20;99.90;;;;;;5033275;28;20060;-77
2023/03/12 07:32:25;;;;;;;7.72;3.15;;;3.20;99.90;;;;;;5015620;28;20477;-77
2023/03/12 07:34:50;;;;;;;10.05;3.35;;;3.30;99.90;;;;;;5033390;28;20030;-77
2023/03/12 07:37:16;;;;;;;6.28;2.90;;;3.30;99.90;;;;;;5033301;28;20022;-77
2023/03/12 07:39:43;;;;;;;9.15;3.53;;;3.30;99.90;;;;;;5034480;28;20076;-77
2023/03/12 07:42:08;;;;;;;16.10;3.50;;;3.40;99.90;;;;;;5033895;28;20080;-77
2023/03/12 07:44:37;;;;;;;7.97;3.75;;;3.40;99.90;;;;;;5016089;28;20029;-77
2023/03/12 07:47:03;;;;;;;8.85;3.67;;;3.40;99.90;;;;;;5015969;28;20034;-77
2023/03/12 07:49:28;;;;;;;7.18;3.08;;;3.40;99.90;;;;;;5033107;28;20092;-77
2023/03/12 07:51:54;;;;;;;10.45;3.90;;;3.40;99.90;;;;;;5016036;28;20025;-75
2023/03/12 07:54:24;;;;;;;8.82;4.05;;;3.50;99.90;;;;;;5015748;28;20108;-76
2023/03/12 07:56:49;;;;;;;10.57;4.05;;;3.40;99.90;;;;;;5015144;28;20399;-76
2023/03/12 07:59:15;;;;;;;8.05;4.10;;;3.40;99.90;;;;;;5033208;28;20018;-75
2023/03/12 08:01:41;;;;;;;10.48;4.22;;;3.50;99.90;;;;;;5019264;28;20054;-76
2023/03/12 08:04:06;;;;;;;11.32;3.95;;;3.50;99.90;;;;;;5037642;28;20022;-76
2023/03/12 08:06:32;;;;;;;9.85;4.18;;;3.60;99.90;;;;;;5019398;28;20112;-76
2023/03/12 08:08:57;;;;;;;9.68;4.72;;;3.50;99.90;;;;;;5019597;28;20025;-79
2023/03/12 08:11:23;;;;;;;11.70;5.00;;;3.50;99.90;;;;;;5037549;28;20392;-78
2023/03/12 08:13:49;;;;;;;9.90;4.38;;;3.60;99.90;;;;;;5020590;28;20029;-78
2023/03/12 08:16:14;;;;;;;10.82;5.30;;;3.70;99.90;;;;;;5020062;28;20029;-78
2023/03/12 08:18:41;;;;;;;11.75;5.38;;;5.30;99.90;;;;;;5018714;28;20396;-77
2023/03/12 08:21:07;;;;;;;9.63;5.00;;;3.70;99.90;;;;;;5037372;28;20025;-77
2023/03/12 08:23:33;;;;;;;12.10;5.85;;;3.80;99.90;;;;;;5037033;28;20076;-77
2023/03/12 08:25:58;;;;;;;12.15;5.20;;;3.80;99.90;;;;;;5036778;28;20052;-77
2023/03/12 08:28:24;;;;;;;11.77;6.28;;;3.90;99.90;;;;;;5019248;28;20489;-77
2023/03/12 08:30:54;;;;;;;11.75;5.35;;;4.70;99.90;;;;;;5019422;28;20120;-77
2023/03/12 08:33:20;;;;;;;12.10;5.40;;;4.80;99.90;;;;;;5036800;28;20025;-77
2023/03/12 08:35:47;;;;;;;11.43;5.10;;;4.00;99.90;;;;;;5018785;28;20028;-77
2023/03/12 08:38:12;;;;;;;11.68;5.72;;;4.00;99.90;;;;;;5036957;28;20071;-77
2023/03/12 08:40:38;;;;;;;13.82;5.75;;;4.10;99.90;;;;;;5019181;28;20396;-76
2023/03/12 08:43:04;;;;;;;13.13;6.40;;;4.10;99.90;;;;;;5018460;28;20025;-77
2023/03/12 08:45:30;;;;;;;10.68;5.15;;;4.20;99.90;;;;;;5036467;28;20029;-78
2023/03/12 08:47:55;;;;;;;13.50;5.70;;;4.20;99.90;;;;;;5036864;28;20362;-78
2023/03/12 08:50:21;;;;;;;13.35;5.22;;;4.30;99.90;;;;;;5018848;28;20024;-77
2023/03/12 08:52:48;;;;;;;14.70;5.65;;;4.30;99.90;;;;;;5018839;28;20465;-77
2023/03/12 08:55:13;;;;;;;11.05;4.97;;;4.40;99.90;;;;;;5036418;28;20075;-77
2023/03/12 08:57:40;;;;;;;15.13;6.05;;;4.50;99.90;;;;;;5036274;28;20029;-77
2023/03/12 09:00:10;;;;;;;15.52;5.65;;;4.50;99.90;;;;;;5017957;28;20392;-77
2023/03/12 09:02:37;;;;;;;13.00;5.88;;;4.60;99.90;;;;;;5018012;28;20040;-77
2023/03/12 09:05:03;;;;;;;13.27;6.10;;;4.80;99.90;;;;;;5035704;28;20030;-77
2023/03/12 09:07:30;;;;;;;17.20;7.50;;;4.80;99.90;;;;;;5017790;28;20034;-77
2023/03/12 09:09:56;;;;;;;14.98;7.05;;;5.00;99.90;;;;;;5036064;28;20017;-77
2023/03/12 09:12:22;;;;;;;17.17;7.32;;;5.10;99.90;;;;;;5035956;28;20435;-77
2023/03/12 09:14:49;;;;;;;20.73;8.63;;;5.20;99.90;;;;;;5035643;28;20017;-77
2023/03/12 09:17:15;;;;;;;17.88;7.75;;;5.20;99.90;;;;;;5035471;28;20072;-77
2023/03/12 09:19:40;;;;;;;16.83;8.07;;;5.30;99.90;;;;;;5035760;28;20049;-77
2023/03/12 09:22:06;;;;;;;22.13;8.20;;;5.30;99.90;;;;;;5017711;28;20075;-77
2023/03/12 09:24:32;;;;;;;22.20;8.77;;;5.40;99.90;;;;;;5017509;28;20032;-77
2023/03/12 09:26:58;;;;;;;21.80;8.63;;;5.50;99.90;;;;;;5035015;28;20034;-77
2023/03/12 09:29:23;;;;;;;19.00;8.40;;;5.60;99.90;;;;;;5017528;28;20336;-77
2023/03/12 09:31:49;;;;;;;22.65;8.85;;;5.70;99.90;;;;;;5017313;28;20032;-77
2023/03/12 09:34:15;;;;;;;20.90;8.88;;;5.80;99.90;;;;;;5017409;28;20028;-77
2023/03/12 09:36:41;;;;;;;22.33;9.40;;;5.90;99.90;;;;;;5035025;28;20100;-74
2023/03/12 09:39:07;;;;;;;22.55;9.38;;;5.90;99.90;;;;;;5034977;28;20025;-75
2023/03/12 09:41:38;;;;;;;24.30;9.02;;;6.00;99.90;;;;;;5017348;28;20053;-75
2023/03/12 09:44:38;;;;;;;21.63;9.80;;;6.10;99.90;;;;;;5017634;28;20025;-76
2023/03/12 09:47:29;;;;;;;21.77;7.93;;;6.10;99.90;;;;;;5017016;28;20048;-76
2023/03/12 09:50:02;;;;;;;26.88;9.90;;;6.30;99.90;;;;;;5016358;28;20045;-76
2023/03/12 09:53:00;;;;;;;24.98;11.13;;;6.60;99.90;;;;;;5017164;28;20021;-76
2023/03/12 09:55:27;;;;;;;28.38;9.75;;;6.50;99.90;;;;;;5033794;28;20037;-76
2023/03/12 09:57:54;;;;;;;27.17;11.63;;;6.60;99.90;;;;;;5016964;28;20026;-76
2023/03/12 10:00:23;;;;;;;27.15;11.38;;;6.80;99.90;;;;;;5016985;28;20026;-76
2023/03/12 10:02:57;;;;;;;21.20;9.73;;;6.90;99.90;;;;;;5034616;28;20033;-76
2023/03/12 10:05:46;;;;;;;28.52;11.05;;;7.00;99.90;;;;;;5034542;28;20046;-76
2023/03/12 10:08:33;;;;;;;31.35;11.85;;;7.10;99.90;;;;;;5017051;28;20033;-76
2023/03/12 10:11:08;;;;;;;27.88;11.23;;;7.10;99.90;;;;;;5034433;28;20025;-76
2023/03/12 10:13:48;;;;;;;27.25;10.80;;;7.20;99.90;;;;;;5016682;28;20026;-76
2023/03/12 10:16:34;;;;;;;23.85;10.43;;;7.20;99.90;;;;;;5034380;28;20136;-76
2023/03/12 10:19:35;;;;;;;25.00;10.35;;;7.30;99.90;;;;;;5035024;28;20029;-76
2023/03/12 10:22:31;;;;;;;22.85;10.05;;;7.40;99.90;;;;;;5034588;28;20033;-76
2023/03/12 10:25:38;;;;;;;22.38;11.07;;;7.50;99.90;;;;;;5016439;28;20025;-76
2023/03/12 10:28:15;;;;;;;31.20;10.45;;;7.60;99.90;;;;;;4953989;29;20028;-77
2023/03/12 10:30:53;;;;;;;23.15;9.90;;;7.70;99.90;;;;;;4954078;29;20510;-77
2023/03/12 10:33:19;;;;;;;19.02;7.78;;;7.90;99.90;;;;;;4986469;28;20033;-77
2023/03/12 10:35:45;;;;;;;19.98;9.32;;;8.00;99.90;;;;;;5016395;28;20029;-78
2023/03/12 10:38:18;;;;;;;21.35;8.77;;;8.20;99.90;;;;;;5034033;28;20473;-77
2023/03/12 10:40:44;;;;;;;22.77;7.90;;;8.30;99.90;;;;;;5016434;28;20059;-78
2023/03/12 10:43:10;;;;;;;36.13;10.00;;;8.40;99.90;;;;;;5016344;28;20025;-77
2023/03/12 10:46:09;;;;;;;24.52;9.00;;;8.40;99.90;;;;;;5034064;28;20033;-77
2023/03/12 10:48:34;;;;;;;24.95;10.60;;;8.40;99.90;;;;;;5016225;28;20036;-77
2023/03/12 10:51:00;;;;;;;20.33;9.05;;;8.50;99.90;;;;;;5016113;28;20473;-77
2023/03/12 10:53:29;;;;;;;19.90;8.68;;;8.50;99.90;;;;;;5016007;28;20397;-77
2023/03/12 10:56:02;;;;;;;21.98;8.13;;;8.60;99.90;;;;;;5015794;28;20060;-77
2023/03/12 10:58:40;;;;;;;22.50;8.35;;;8.60;99.90;;;;;;5033949;28;20072;-77
2023/03/12 11:01:14;;;;;;;18.73;8.43;;;8.60;99.90;;;;;;5034235;28;20477;-77
2023/03/12 11:03:41;;;;;;;18.80;6.75;;;8.60;99.90;;;;;;5016070;28;20037;-77
2023/03/12 11:06:14;;;;;;;18.80;6.40;;;8.80;99.90;;;;;;5015757;28;20036;-77
2023/03/12 11:08:40;;;;;;;22.42;6.95;;;8.80;99.90;;;;;;5015768;28;20032;-77
2023/03/12 11:11:06;;;;;;;32.75;7.40;;;9.50;99.90;;;;;;5033520;28;20021;-77
2023/03/12 11:13:34;;;;;;;19.10;7.07;;;8.70;99.90;;;;;;5015804;28;20021;-77
2023/03/12 11:16:19;;;;;;;22.45;6.28;;;8.80;99.90;;;;;;5015692;28;20024;-77
2023/03/12 11:19:02;;;;;;;28.95;7.00;;;8.80;99.90;;;;;;5015627;28;20484;-77
2023/03/12 11:21:30;;;;;;;21.15;5.32;;;8.90;99.90;;;;;;5015718;28;20424;-76
2023/03/12 11:23:56;;;;;;;22.70;5.07;;;8.90;99.90;;;;;;5015794;28;20025;-76
2023/03/12 11:26:24;;;;;;;14.75;4.00;;;9.10;99.90;;;;;;5015509;28;20026;-74
2023/03/12 11:28:51;;;;;;;17.45;4.50;;;9.10;99.90;;;;;;5033064;28;20113;-75
2023/03/12 11:31:23;;;;;;;26.58;5.15;;;9.10;99.90;;;;;;5015653;28;20021;-75
2023/03/12 11:33:51;;;;;;;28.48;4.47;;;9.10;99.90;;;;;;5015703;28;20543;-75
2023/03/12 11:36:41;;;;;;;21.75;4.25;;;9.00;99.90;;;;;;5036582;28;20044;-75
2023/03/12 11:39:36;;;;;;;22.10;3.58;;;9.00;99.90;;;;;;5019648;28;20026;-75
2023/03/12 11:42:23;;;;;;;24.60;3.95;;;9.10;99.90;;;;;;5037333;28;20118;-75
2023/03/12 11:45:02;;;;;;;20.52;3.75;;;9.10;99.90;;;;;;5037215;28;20036;-75
2023/03/12 11:47:43;;;;;;;20.60;3.00;;;9.10;99.90;;;;;;5037159;28;20032;-75
2023/03/12 11:50:34;;;;;;;20.85;3.03;;;9.10;99.90;;;;;;5019423;28;20021;-75
2023/03/12 11:53:11;;;;;;;29.63;3.28;;;9.10;99.90;;;;;;5019251;28;20021;-75
2023/03/12 11:55:42;;;;;;;27.85;3.72;;;9.10;99.90;;;;;;5019177;28;20022;-75
2023/03/12 11:58:22;;;;;;;24.65;3.10;;;9.10;99.90;;;;;;5037126;28;20420;-75
2023/03/12 12:01:12;;;;;;;24.42;2.10;;;9.20;99.90;;;;;;5036819;28;20025;-75
2023/03/12 12:03:44;;;;;;;20.65;3.10;;;9.20;99.90;;;;;;5036276;28;20037;-75
2023/03/12 12:06:30;;;;;;;26.30;2.63;;;9.30;99.90;;;;;;5018960;28;20493;-75
2023/03/12 12:09:15;;;;;;;18.88;2.17;;;9.40;99.90;;;;;;5018942;28;20116;-75
2023/03/12 12:12:06;;;;;;;26.73;3.05;;;9.50;99.90;;;;;;5037140;28;20021;-75
2023/03/12 12:15:02;;;;;;;27.52;3.78;;;9.50;99.90;;;;;;5037218;28;20049;-75
2023/03/12 12:17:45;;;;;;;29.52;3.28;;;9.70;99.90;;;;;;5036434;28;20022;-74
2023/03/12 12:20:36;;;;;;;17.45;2.45;;;9.80;99.90;;;;;;5036569;28;20083;-74
2023/03/12 12:23:21;;;;;;;21.98;2.53;;;9.90;99.90;;;;;;5036548;28;20033;-74
2023/03/12 12:26:17;;;;;;;28.30;2.75;;;10.00;99.90;;;;;;5036911;28;20049;-75
2023/03/12 12:29:26;;;;;;;23.17;2.92;;;10.00;99.90;;;;;;5003411;28;20049;-74
2023/03/12 12:31:56;;;;;;;24.35;2.67;;;10.10;99.90;;;;;;4986188;28;20036;-74
2023/03/12 12:34:31;;;;;;;21.92;2.35;;;10.10;99.90;;;;;;5018687;28;20029;-74
2023/03/12 12:37:05;;;;;;;23.45;2.60;;;10.20;99.90;;;;;;5018442;28;20053;-75
2023/03/12 12:39:42;;;;;;;19.77;2.20;;;10.10;99.90;;;;;;5036179;28;20029;-74
2023/03/12 12:42:16;;;;;;;27.38;2.45;;;10.10;99.90;;;;;;5018376;28;20488;-74
2023/03/12 12:44:48;;;;;;;31.13;3.28;;;10.10;99.90;;;;;;5018861;28;20026;-74
2023/03/12 12:47:21;;;;;;;25.33;2.22;;;10.10;99.90;;;;;;5017624;28;20086;-75
2023/03/12 12:49:58;;;;;;;21.50;1.70;;;10.20;99.90;;;;;;5036048;28;20049;-74
2023/03/12 12:52:25;;;;;;;24.17;3.25;;;10.20;99.90;;;;;;5018168;28;20392;-74
2023/03/12 12:55:10;;;;;;;22.77;3.30;;;10.20;99.90;;;;;;5035895;28;20043;-75
2023/03/12 12:57:56;;;;;;;24.60;2.00;;;10.30;99.90;;;;;;5036480;28;20032;-75
2023/03/12 13:00:49;;;;;;;18.45;2.03;;;10.40;99.90;;;;;;5036392;28;20021;-75
2023/03/12 13:03:19;;;;;;;22.75;2.10;;;10.60;99.90;;;;;;5018256;28;20127;-74
2023/03/12 13:06:01;;;;;;;24.80;3.70;;;10.60;99.90;;;;;;5035946;28;20069;-74